Terminal Aerodrome Forecast
Issued by NWS Atlanta, GA

Home | Current Version | Previous Version | Text Only | Print | Product List | Glossary On
Versions: 1 2 3 4 5 6 7 8 9 10 11 12 13 14 15
000
FTUS42 KFFC 030534
TAFCSG
TAF
KCSG 030534Z 0306/0406 00000KT P6SM BKN250
     FM031200 02004KT P6SM BKN150
     FM031500 04006KT P6SM BKN090
     FM032200 08007KT P6SM VCSH OVC060=

USA.gov is the U.S. government's official web portal to all federal, state and local government web resources and services.